sensor_id;sensor_type;location;lat;lon;timestamp;pressure;altitude;pressure_sealevel;temperature;humidity
62124;BME280;48110;47.532;19.078;2023-04-23T00:02:46;100167.72;;;9.12;100.00
62124;BME280;48110;47.532;19.078;2023-04-23T00:05:51;100161.28;;;9.14;100.00
62124;BME280;48110;47.532;19.078;2023-04-23T00:08:55;100165.56;;;9.07;100.00
62124;BME280;48110;47.532;19.078;2023-04-23T00:11:59;100170.53;;;9.02;100.00
62124;BME280;48110;47.532;19.078;2023-04-23T00:15:03;100162.41;;;8.96;100.00
62124;BME280;48110;47.532;19.078;2023-04-23T00:18:08;100170.00;;;8.91;100.00
62124;BME280;48110;47.532;19.078;2023-04-23T00:21:11;100158.25;;;8.85;100.00
62124;BME280;48110;47.532;19.078;2023-04-23T00:24:14;100156.75;;;8.83;100.00
62124;BME280;48110;47.532;19.078;2023-04-23T00:27:16;100157.25;;;8.78;100.00
62124;BME280;48110;47.532;19.078;2023-04-23T00:30:19;100156.91;;;8.73;100.00
62124;BME280;48110;47.532;19.078;2023-04-23T00:33:22;100161.84;;;8.68;100.00
62124;BME280;48110;47.532;19.078;2023-04-23T00:36:25;100156.88;;;8.65;100.00
62124;BME280;48110;47.532;19.078;2023-04-23T00:39:27;100159.19;;;8.60;100.00
62124;BME280;48110;47.532;19.078;2023-04-23T00:42:30;100155.03;;;8.57;100.00
62124;BME280;48110;47.532;19.078;2023-04-23T00:45:33;100153.69;;;8.53;100.00
62124;BME280;48110;47.532;19.078;2023-04-23T00:48:36;100159.16;;;8.52;100.00
62124;BME280;48110;47.532;19.078;2023-04-23T00:51:40;100158.81;;;8.47;100.00
62124;BME280;48110;47.532;19.078;2023-04-23T00:54:42;100155.00;;;8.41;100.00
62124;BME280;48110;47.532;19.078;2023-04-23T00:57:45;100154.44;;;8.38;100.00
62124;BME280;48110;47.532;19.078;2023-04-23T01:00:49;100148.66;;;8.34;100.00
62124;BME280;48110;47.532;19.078;2023-04-23T01:03:53;100147.19;;;8.32;100.00
62124;BME280;48110;47.532;19.078;2023-04-23T01:06:58;100155.37;;;8.28;100.00
62124;BME280;48110;47.532;19.078;2023-04-23T01:10:00;100143.97;;;8.28;100.00
62124;BME280;48110;47.532;19.078;2023-04-23T01:13:04;100144.69;;;8.30;100.00
62124;BME280;48110;47.532;19.078;2023-04-23T01:16:06;100152.37;;;8.23;100.00
62124;BME280;48110;47.532;19.078;2023-04-23T01:19:09;100152.72;;;8.20;100.00
62124;BME280;48110;47.532;19.078;2023-04-23T01:22:12;100150.38;;;8.17;100.00
62124;BME280;48110;47.532;19.078;2023-04-23T01:25:15;100151.00;;;8.11;100.00
62124;BME280;48110;47.532;19.078;2023-04-23T01:28:18;100146.19;;;8.07;100.00
62124;BME280;48110;47.532;19.078;2023-04-23T01:31:22;100143.19;;;8.02;100.00
62124;BME280;48110;47.532;19.078;2023-04-23T01:34:25;100142.53;;;8.00;100.00
62124;BME280;48110;47.532;19.078;2023-04-23T01:37:28;100143.00;;;7.95;100.00
62124;BME280;48110;47.532;19.078;2023-04-23T01:40:30;100142.34;;;7.93;100.00
62124;BME280;48110;47.532;19.078;2023-04-23T01:43:33;100142.81;;;7.89;100.00
62124;BME280;48110;47.532;19.078;2023-04-23T01:46:36;100142.59;;;7.82;100.00
62124;BME280;48110;47.532;19.078;2023-04-23T01:49:39;100149.69;;;7.81;100.00
62124;BME280;48110;47.532;19.078;2023-04-23T01:52:42;100140.56;;;7.76;100.00
62124;BME280;48110;47.532;19.078;2023-04-23T01:55:46;100139.22;;;7.72;100.00
62124;BME280;48110;47.532;19.078;2023-04-23T01:58:49;100144.97;;;7.67;100.00
62124;BME280;48110;47.532;19.078;2023-04-23T02:01:53;100143.50;;;7.65;100.00
62124;BME280;48110;47.532;19.078;2023-04-23T02:04:55;100146.41;;;7.62;100.00
62124;BME280;48110;47.532;19.078;2023-04-23T02:08:00;100138.81;;;7.59;100.00
62124;BME280;48110;47.532;19.078;2023-04-23T02:11:04;100134.19;;;7.61;100.00
62124;BME280;48110;47.532;19.078;2023-04-23T02:14:07;100140.78;;;7.57;100.00
62124;BME280;48110;47.532;19.078;2023-04-23T02:17:10;100131.03;;;7.57;100.00
62124;BME280;48110;47.532;19.078;2023-04-23T02:20:13;100132.84;;;7.57;100.00
62124;BME280;48110;47.532;19.078;2023-04-23T02:23:16;100131.50;;;7.53;100.00
62124;BME280;48110;47.532;19.078;2023-04-23T02:26:18;100130.31;;;7.47;100.00
62124;BME280;48110;47.532;19.078;2023-04-23T02:29:22;100134.09;;;7.45;100.00
62124;BME280;48110;47.532;19.078;2023-04-23T02:32:25;100133.41;;;7.42;100.00
62124;BME280;48110;47.532;19.078;2023-04-23T02:35:27;100124.50;;;7.43;100.00
62124;BME280;48110;47.532;19.078;2023-04-23T02:38:30;100129.19;;;7.50;100.00
62124;BME280;48110;47.532;19.078;2023-04-23T02:41:32;100131.59;;;7.43;100.00
62124;BME280;48110;47.532;19.078;2023-04-23T02:44:35;100125.50;;;7.42;100.00
62124;BME280;48110;47.532;19.078;2023-04-23T02:47:37;100127.38;;;7.32;100.00
62124;BME280;48110;47.532;19.078;2023-04-23T02:50:40;100127.72;;;7.29;100.00
62124;BME280;48110;47.532;19.078;2023-04-23T02:53:43;100126.88;;;7.29;100.00
62124;BME280;48110;47.532;19.078;2023-04-23T02:56:46;100123.88;;;7.24;100.00
62124;BME280;48110;47.532;19.078;2023-04-23T02:59:48;100126.81;;;7.21;100.00
62124;BME280;48110;47.532;19.078;2023-04-23T03:02:52;100115.88;;;7.16;100.00
62124;BME280;48110;47.532;19.078;2023-04-23T03:05:55;100129.38;;;7.13;100.00
62124;BME280;48110;47.532;19.078;2023-04-23T03:08:58;100121.06;;;7.08;100.00
62124;BME280;48110;47.532;19.078;2023-04-23T03:12:01;100119.59;;;7.05;100.00
62124;BME280;48110;47.532;19.078;2023-04-23T03:15:04;100122.37;;;7.04;100.00
62124;BME280;48110;47.532;19.078;2023-04-23T03:18:08;100129.91;;;6.98;100.00
62124;BME280;48110;47.532;19.078;2023-04-23T03:21:11;100115.88;;;6.98;100.00
62124;BME280;48110;47.532;19.078;2023-04-23T03:24:14;100117.03;;;6.95;100.00
62124;BME280;48110;47.532;19.078;2023-04-23T03:27:18;100122.44;;;6.94;100.00
62124;BME280;48110;47.532;19.078;2023-04-23T03:30:20;100115.50;;;6.93;100.00
62124;BME280;48110;47.532;19.078;2023-04-23T03:33:23;100118.97;;;6.93;100.00
62124;BME280;48110;47.532;19.078;2023-04-23T03:36:25;100121.09;;;6.90;100.00
62124;BME280;48110;47.532;19.078;2023-04-23T03:39:28;100114.84;;;6.91;100.00
62124;BME280;48110;47.532;19.078;2023-04-23T03:42:32;100115.13;;;6.88;100.00
62124;BME280;48110;47.532;19.078;2023-04-23T03:45:35;100120.03;;;6.83;100.00
62124;BME280;48110;47.532;19.078;2023-04-23T03:48:38;100124.09;;;6.95;100.00
62124;BME280;48110;47.532;19.078;2023-04-23T03:51:40;100132.19;;;7.11;100.00
62124;BME280;48110;47.532;19.078;2023-04-23T03:54:43;100136.38;;;7.22;100.00
62124;BME280;48110;47.532;19.078;2023-04-23T03:57:46;100134.78;;;7.29;100.00
62124;BME280;48110;47.532;19.078;2023-04-23T04:00:49;100135.09;;;7.26;100.00
62124;BME280;48110;47.532;19.078;2023-04-23T04:03:52;100126.28;;;7.17;100.00
62124;BME280;48110;47.532;19.078;2023-04-23T04:06:57;100127.34;;;7.07;100.00
62124;BME280;48110;47.532;19.078;2023-04-23T04:10:02;100135.16;;;6.98;100.00
62124;BME280;48110;47.532;19.078;2023-04-23T04:13:04;100136.31;;;6.96;100.00
62124;BME280;48110;47.532;19.078;2023-04-23T04:16:07;100141.59;;;6.96;100.00
62124;BME280;48110;47.532;19.078;2023-04-23T04:19:09;100149.34;;;6.97;100.00
62124;BME280;48110;47.532;19.078;2023-04-23T04:22:12;100143.78;;;7.01;100.00
62124;BME280;48110;47.532;19.078;2023-04-23T04:25:14;100146.94;;;7.04;100.00
62124;BME280;48110;47.532;19.078;2023-04-23T04:28:17;100147.16;;;7.11;100.00
62124;BME280;48110;47.532;19.078;2023-04-23T04:31:20;100146.91;;;7.22;100.00
62124;BME280;48110;47.532;19.078;2023-04-23T04:34:23;100153.78;;;7.32;100.00
62124;BME280;48110;47.532;19.078;2023-04-23T04:37:25;100158.69;;;7.45;100.00
62124;BME280;48110;47.532;19.078;2023-04-23T04:40:29;100153.97;;;7.57;100.00
62124;BME280;48110;47.532;19.078;2023-04-23T04:43:32;100158.31;;;7.66;100.00
62124;BME280;48110;47.532;19.078;2023-04-23T04:46:35;100155.75;;;7.74;100.00
62124;BME280;48110;47.532;19.078;2023-04-23T04:49:41;100154.63;;;7.84;100.00
62124;BME280;48110;47.532;19.078;2023-04-23T04:52:44;100158.53;;;7.98;100.00
62124;BME280;48110;47.532;19.078;2023-04-23T04:55:46;100166.88;;;8.11;100.00
62124;BME280;48110;47.532;19.078;2023-04-23T04:58:49;100165.78;;;8.22;100.00
62124;BME280;48110;47.532;19.078;2023-04-23T05:01:51;100171.31;;;8.37;100.00
62124;BME280;48110;47.532;19.078;2023-04-23T05:04:54;100174.19;;;8.51;100.00
62124;BME280;48110;47.532;19.078;2023-04-23T05:07:56;100168.44;;;8.64;100.00
62124;BME280;48110;47.532;19.078;2023-04-23T05:11:03;100170.31;;;8.80;100.00
62124;BME280;48110;47.532;19.078;2023-04-23T05:14:06;100169.69;;;8.94;100.00
62124;BME280;48110;47.532;19.078;2023-04-23T05:17:08;100168.06;;;9.09;100.00
62124;BME280;48110;47.532;19.078;2023-04-23T05:20:11;100172.03;;;9.21;100.00
62124;BME280;48110;47.532;19.078;2023-04-23T05:23:14;100173.72;;;9.38;100.00
62124;BME280;48110;47.532;19.078;2023-04-23T05:26:17;100176.34;;;9.54;100.00
62124;BME280;48110;47.532;19.078;2023-04-23T05:29:22;100170.69;;;9.74;100.00
62124;BME280;48110;47.532;19.078;2023-04-23T05:32:24;100174.19;;;9.82;100.00
62124;BME280;48110;47.532;19.078;2023-04-23T05:35:29;100178.63;;;10.06;100.00
62124;BME280;48110;47.532;19.078;2023-04-23T05:38:33;100173.13;;;10.24;100.00
62124;BME280;48110;47.532;19.078;2023-04-23T05:41:35;100169.47;;;10.25;100.00
62124;BME280;48110;47.532;19.078;2023-04-23T05:44:38;100168.44;;;10.34;100.00
62124;BME280;48110;47.532;19.078;2023-04-23T05:47:43;100173.88;;;10.49;100.00
62124;BME280;48110;47.532;19.078;2023-04-23T05:50:47;100167.31;;;10.67;100.00
62124;BME280;48110;47.532;19.078;2023-04-23T05:53:50;100177.50;;;10.86;100.00
62124;BME280;48110;47.532;19.078;2023-04-23T05:56:55;100174.31;;;10.91;100.00
62124;BME280;48110;47.532;19.078;2023-04-23T05:59:58;100170.28;;;11.03;100.00
62124;BME280;48110;47.532;19.078;2023-04-23T06:03:01;100175.13;;;11.22;100.00
62124;BME280;48110;47.532;19.078;2023-04-23T06:06:04;100177.84;;;11.37;100.00
62124;BME280;48110;47.532;19.078;2023-04-23T06:09:06;100191.88;;;11.46;98.34
62124;BME280;48110;47.532;19.078;2023-04-23T06:12:09;100182.59;;;11.64;96.33
62124;BME280;48110;47.532;19.078;2023-04-23T06:15:12;100184.31;;;11.80;93.47
62124;BME280;48110;47.532;19.078;2023-04-23T06:18:15;100183.28;;;11.96;91.42
62124;BME280;48110;47.532;19.078;2023-04-23T06:21:17;100189.28;;;12.12;91.46
62124;BME280;48110;47.532;19.078;2023-04-23T06:24:21;100190.41;;;12.33;85.96
62124;BME280;48110;47.532;19.078;2023-04-23T06:27:23;100188.47;;;12.56;85.25
62124;BME280;48110;47.532;19.078;2023-04-23T06:30:27;100191.75;;;12.73;81.86
62124;BME280;48110;47.532;19.078;2023-04-23T06:33:29;100196.00;;;12.88;79.88
62124;BME280;48110;47.532;19.078;2023-04-23T06:36:33;100199.72;;;13.08;74.50
62124;BME280;48110;47.532;19.078;2023-04-23T06:39:36;100198.00;;;13.16;75.02
62124;BME280;48110;47.532;19.078;2023-04-23T06:42:39;100198.41;;;13.55;73.93
62124;BME280;48110;47.532;19.078;2023-04-23T06:45:42;100198.03;;;13.86;68.23
62124;BME280;48110;47.532;19.078;2023-04-23T06:48:45;100191.31;;;14.18;64.81
62124;BME280;48110;47.532;19.078;2023-04-23T06:51:48;100204.22;;;14.49;62.99
62124;BME280;48110;47.532;19.078;2023-04-23T06:54:52;100195.25;;;14.63;61.80
62124;BME280;48110;47.532;19.078;2023-04-23T06:57:55;100195.88;;;15.12;59.94
62124;BME280;48110;47.532;19.078;2023-04-23T07:00:58;100194.75;;;16.00;57.87
62124;BME280;48110;47.532;19.078;2023-04-23T07:04:08;100190.91;;;16.67;56.36
62124;BME280;48110;47.532;19.078;2023-04-23T07:07:14;100193.28;;;17.64;51.23
62124;BME280;48110;47.532;19.078;2023-04-23T07:10:16;100190.28;;;18.40;48.39
62124;BME280;48110;47.532;19.078;2023-04-23T07:13:19;100194.19;;;18.81;47.89
62124;BME280;48110;47.532;19.078;2023-04-23T07:16:21;100193.97;;;19.42;45.30
62124;BME280;48110;47.532;19.078;2023-04-23T07:19:25;100200.88;;;20.14;42.55
62124;BME280;48110;47.532;19.078;2023-04-23T07:22:28;100189.66;;;20.41;41.99
62124;BME280;48110;47.532;19.078;2023-04-23T07:25:31;100190.00;;;20.96;41.17
62124;BME280;48110;47.532;19.078;2023-04-23T07:28:34;100191.50;;;20.63;39.76
62124;BME280;48110;47.532;19.078;2023-04-23T07:31:38;100183.06;;;21.73;39.15
62124;BME280;48110;47.532;19.078;2023-04-23T07:34:42;100189.22;;;22.40;36.71
62124;BME280;48110;47.532;19.078;2023-04-23T07:37:45;100187.41;;;23.11;35.09
62124;BME280;48110;47.532;19.078;2023-04-23T07:40:49;100178.16;;;23.07;33.53
62124;BME280;48110;47.532;19.078;2023-04-23T07:43:52;100182.94;;;23.22;33.57
62124;BME280;48110;47.532;19.078;2023-04-23T07:46:54;100183.69;;;22.14;33.42
62124;BME280;48110;47.532;19.078;2023-04-23T07:49:57;100176.63;;;23.43;33.51
62124;BME280;48110;47.532;19.078;2023-04-23T07:53:00;100180.78;;;22.37;34.20
62124;BME280;48110;47.532;19.078;2023-04-23T07:56:02;100183.31;;;23.57;31.05
62124;BME280;48110;47.532;19.078;2023-04-23T07:59:05;100176.28;;;24.35;29.28
62124;BME280;48110;47.532;19.078;2023-04-23T08:02:08;100179.06;;;25.18;28.86
62124;BME280;48110;47.532;19.078;2023-04-23T08:05:11;100180.66;;;25.08;26.87
62124;BME280;48110;47.532;19.078;2023-04-23T08:08:13;100177.78;;;23.79;27.85
62124;BME280;48110;47.532;19.078;2023-04-23T08:11:16;100173.41;;;23.19;28.86
62124;BME280;48110;47.532;19.078;2023-04-23T08:14:19;100166.94;;;24.68;27.47
62124;BME280;48110;47.532;19.078;2023-04-23T08:17:21;100170.38;;;24.43;26.86
62124;BME280;48110;47.532;19.078;2023-04-23T08:20:24;100169.53;;;25.10;26.69
62124;BME280;48110;47.532;19.078;2023-04-23T08:23:27;100168.94;;;23.94;28.71
62124;BME280;48110;47.532;19.078;2023-04-23T08:26:29;100168.72;;;24.00;27.48
62124;BME280;48110;47.532;19.078;2023-04-23T08:29:34;100172.37;;;25.66;25.43
62124;BME280;48110;47.532;19.078;2023-04-23T08:32:37;100168.53;;;25.57;24.82
62124;BME280;48110;47.532;19.078;2023-04-23T08:35:40;100172.06;;;26.03;24.37
62124;BME280;48110;47.532;19.078;2023-04-23T08:38:43;100166.09;;;26.85;24.69
62124;BME280;48110;47.532;19.078;2023-04-23T08:41:46;100169.09;;;25.79;24.95
62124;BME280;48110;47.532;19.078;2023-04-23T08:44:50;100155.22;;;25.50;25.32
62124;BME280;48110;47.532;19.078;2023-04-23T08:47:58;100156.03;;;25.35;25.69
62124;BME280;48110;47.532;19.078;2023-04-23T08:51:03;100153.03;;;24.07;27.12
62124;BME280;48110;47.532;19.078;2023-04-23T08:54:07;100145.97;;;26.81;24.49
62124;BME280;48110;47.532;19.078;2023-04-23T08:57:14;100139.41;;;27.70;23.28
62124;BME280;48110;47.532;19.078;2023-04-23T09:00:18;100138.06;;;27.67;24.12
62124;BME280;48110;47.532;19.078;2023-04-23T09:03:21;100145.28;;;26.55;24.43
62124;BME280;48110;47.532;19.078;2023-04-23T09:06:25;100140.25;;;27.27;23.13
62124;BME280;48110;47.532;19.078;2023-04-23T09:09:28;100137.03;;;25.50;24.46
62124;BME280;48110;47.532;19.078;2023-04-23T09:12:31;100139.84;;;27.09;23.39
62124;BME280;48110;47.532;19.078;2023-04-23T09:15:36;100136.03;;;28.12;23.41
62124;BME280;48110;47.532;19.078;2023-04-23T09:18:44;100125.25;;;26.31;25.57
62124;BME280;48110;47.532;19.078;2023-04-23T09:21:48;100127.69;;;29.26;22.74
62124;BME280;48110;47.532;19.078;2023-04-23T09:24:53;100129.97;;;30.84;20.42
62124;BME280;48110;47.532;19.078;2023-04-23T09:27:55;100129.22;;;30.56;20.87
62124;BME280;48110;47.532;19.078;2023-04-23T09:31:00;100121.19;;;30.33;20.65
62124;BME280;48110;47.532;19.078;2023-04-23T09:34:03;100124.00;;;28.37;22.14
62124;BME280;48110;47.532;19.078;2023-04-23T09:37:08;100117.94;;;27.63;23.07
62124;BME280;48110;47.532;19.078;2023-04-23T09:40:18;100117.19;;;26.70;24.37
62124;BME280;48110;47.532;19.078;2023-04-23T09:43:21;100122.69;;;29.52;21.48
62124;BME280;48110;47.532;19.078;2023-04-23T09:46:40;100116.19;;;29.94;20.81
62124;BME280;48110;47.532;19.078;2023-04-23T09:49:46;100111.19;;;28.80;21.22
62124;BME280;48110;47.532;19.078;2023-04-23T09:52:58;100108.31;;;28.66;22.08
62124;BME280;48110;47.532;19.078;2023-04-23T09:56:01;100101.72;;;27.43;23.40
62124;BME280;48110;47.532;19.078;2023-04-23T09:59:18;100106.69;;;26.97;22.36
62124;BME280;48110;47.532;19.078;2023-04-23T10:02:31;100091.09;;;25.34;24.65
62124;BME280;48110;47.532;19.078;2023-04-23T10:05:38;100085.97;;;23.46;27.40
62124;BME280;48110;47.532;19.078;2023-04-23T10:08:45;100087.75;;;23.35;26.75
62124;BME280;48110;47.532;19.078;2023-04-23T10:11:52;100074.19;;;22.49;27.87
62124;BME280;48110;47.532;19.078;2023-04-23T10:14:55;100073.56;;;22.21;26.98
62124;BME280;48110;47.532;19.078;2023-04-23T10:17:58;100070.53;;;21.79;28.54
62124;BME280;48110;47.532;19.078;2023-04-23T10:21:02;100067.91;;;22.22;28.26
62124;BME280;48110;47.532;19.078;2023-04-23T10:24:05;100081.53;;;22.10;28.03
62124;BME280;48110;47.532;19.078;2023-04-23T10:27:09;100069.69;;;22.12;28.95
62124;BME280;48110;47.532;19.078;2023-04-23T10:30:28;100058.50;;;21.69;29.72
62124;BME280;48110;47.532;19.078;2023-04-23T10:33:31;100064.25;;;22.33;28.56
62124;BME280;48110;47.532;19.078;2023-04-23T10:36:45;100060.16;;;23.70;26.45
62124;BME280;48110;47.532;19.078;2023-04-23T10:39:48;100065.38;;;24.29;23.82
62124;BME280;48110;47.532;19.078;2023-04-23T10:42:52;100064.31;;;27.25;22.59
62124;BME280;48110;47.532;19.078;2023-04-23T10:45:54;100053.41;;;28.73;20.42
62124;BME280;48110;47.532;19.078;2023-04-23T10:49:04;100053.81;;;32.32;17.65
62124;BME280;48110;47.532;19.078;2023-04-23T10:52:08;100054.69;;;30.46;17.09
62124;BME280;48110;47.532;19.078;2023-04-23T10:55:21;100054.31;;;29.19;18.43
62124;BME280;48110;47.532;19.078;2023-04-23T10:58:27;100037.06;;;32.03;17.40
62124;BME280;48110;47.532;19.078;2023-04-23T11:01:51;100045.97;;;32.73;16.19
62124;BME280;48110;47.532;19.078;2023-04-23T11:04:54;100053.84;;;31.39;18.06
62124;BME280;48110;47.532;19.078;2023-04-23T11:08:02;100047.22;;;31.93;17.14
62124;BME280;48110;47.532;19.078;2023-04-23T11:11:24;100051.44;;;30.80;17.78
62124;BME280;48110;47.532;19.078;2023-04-23T11:14:48;100050.19;;;32.97;17.44
62124;BME280;48110;47.532;19.078;2023-04-23T11:20:55;100041.47;;;35.50;15.13
62124;BME280;48110;47.532;19.078;2023-04-23T11:24:00;100040.50;;;31.69;16.82
62124;BME280;48110;47.532;19.078;2023-04-23T11:27:06;100023.78;;;31.26;17.75
62124;BME280;48110;47.532;19.078;2023-04-23T11:33:21;100028.00;;;32.59;15.58
62124;BME280;48110;47.532;19.078;2023-04-23T11:36:24;100025.25;;;35.04;14.79
62124;BME280;48110;47.532;19.078;2023-04-23T11:39:29;100025.22;;;33.45;15.80
62124;BME280;48110;47.532;19.078;2023-04-23T11:42:31;100031.06;;;33.35;15.64
62124;BME280;48110;47.532;19.078;2023-04-23T11:45:34;100030.34;;;34.31;14.28
62124;BME280;48110;47.532;19.078;2023-04-23T11:48:36;100030.97;;;34.36;15.17
62124;BME280;48110;47.532;19.078;2023-04-23T11:51:40;100017.06;;;31.63;16.47
62124;BME280;48110;47.532;19.078;2023-04-23T11:54:43;100013.97;;;32.77;15.99
62124;BME280;48110;47.532;19.078;2023-04-23T11:57:46;100002.72;;;35.35;14.89
62124;BME280;48110;47.532;19.078;2023-04-23T12:00:55;100005.25;;;32.84;16.91
62124;BME280;48110;47.532;19.078;2023-04-23T12:04:09;99999.22;;;28.24;19.88
62124;BME280;48110;47.532;19.078;2023-04-23T12:07:15;100001.91;;;26.56;21.21
62124;BME280;48110;47.532;19.078;2023-04-23T12:10:28;99994.97;;;28.55;21.14
62124;BME280;48110;47.532;19.078;2023-04-23T12:13:38;99988.75;;;29.65;20.61
62124;BME280;48110;47.532;19.078;2023-04-23T12:16:42;99993.03;;;34.13;16.62
62124;BME280;48110;47.532;19.078;2023-04-23T12:19:44;99976.00;;;28.45;20.62
62124;BME280;48110;47.532;19.078;2023-04-23T12:22:47;99975.66;;;27.38;21.16
62124;BME280;48110;47.532;19.078;2023-04-23T12:25:52;99978.72;;;28.45;20.53
62124;BME280;48110;47.532;19.078;2023-04-23T12:28:58;99968.25;;;30.67;18.73
62124;BME280;48110;47.532;19.078;2023-04-23T12:32:04;99973.41;;;31.13;18.81
62124;BME280;48110;47.532;19.078;2023-04-23T12:35:07;99979.72;;;34.85;15.86
62124;BME280;48110;47.532;19.078;2023-04-23T12:38:24;99972.09;;;33.91;15.98
62124;BME280;48110;47.532;19.078;2023-04-23T12:41:26;99962.66;;;30.22;17.99
62124;BME280;48110;47.532;19.078;2023-04-23T12:44:29;99955.75;;;32.15;17.46
62124;BME280;48110;47.532;19.078;2023-04-23T12:47:40;99953.78;;;33.10;16.53
62124;BME280;48110;47.532;19.078;2023-04-23T12:50:44;99949.63;;;27.74;20.64
62124;BME280;48110;47.532;19.078;2023-04-23T12:53:52;99948.59;;;27.17;21.68
62124;BME280;48110;47.532;19.078;2023-04-23T12:56:55;99945.75;;;25.67;23.80
62124;BME280;48110;47.532;19.078;2023-04-23T12:59:57;99945.31;;;24.84;24.77
62124;BME280;48110;47.532;19.078;2023-04-23T13:03:00;99941.66;;;27.83;20.96
62124;BME280;48110;47.532;19.078;2023-04-23T13:06:03;99939.22;;;33.56;16.33
62124;BME280;48110;47.532;19.078;2023-04-23T13:09:06;99942.88;;;35.84;14.59
62124;BME280;48110;47.532;19.078;2023-04-23T13:12:12;99936.88;;;36.06;13.81
62124;BME280;48110;47.532;19.078;2023-04-23T13:15:15;99932.00;;;36.67;14.72
62124;BME280;48110;47.532;19.078;2023-04-23T13:18:18;99930.59;;;37.64;12.58
62124;BME280;48110;47.532;19.078;2023-04-23T13:21:20;99919.75;;;35.76;13.88
62124;BME280;48110;47.532;19.078;2023-04-23T13:24:23;99919.69;;;38.06;12.82
62124;BME280;48110;47.532;19.078;2023-04-23T13:27:27;99916.91;;;37.39;12.88
62124;BME280;48110;47.532;19.078;2023-04-23T13:30:30;99904.47;;;39.15;12.33
62124;BME280;48110;47.532;19.078;2023-04-23T13:33:33;99901.09;;;35.49;13.99
62124;BME280;48110;47.532;19.078;2023-04-23T13:36:36;99896.59;;;32.95;15.63
62124;BME280;48110;47.532;19.078;2023-04-23T13:39:39;99902.63;;;33.35;15.05
62124;BME280;48110;47.532;19.078;2023-04-23T13:42:44;99878.72;;;32.55;15.50
62124;BME280;48110;47.532;19.078;2023-04-23T13:45:48;99885.97;;;35.43;14.10
62124;BME280;48110;47.532;19.078;2023-04-23T13:48:55;99879.03;;;32.62;15.68
62124;BME280;48110;47.532;19.078;2023-04-23T13:51:57;99871.37;;;35.66;14.80
62124;BME280;48110;47.532;19.078;2023-04-23T13:55:05;99870.41;;;36.98;13.53
62124;BME280;48110;47.532;19.078;2023-04-23T13:58:09;99865.50;;;39.83;11.91
62124;BME280;48110;47.532;19.078;2023-04-23T14:01:14;99870.19;;;36.75;12.67
62124;BME280;48110;47.532;19.078;2023-04-23T14:04:17;99859.94;;;34.95;13.40
62124;BME280;48110;47.532;19.078;2023-04-23T14:07:20;99861.72;;;33.34;15.14
62124;BME280;48110;47.532;19.078;2023-04-23T14:10:22;99857.00;;;29.77;18.24
62124;BME280;48110;47.532;19.078;2023-04-23T14:13:25;99858.63;;;28.64;18.98
62124;BME280;48110;47.532;19.078;2023-04-23T14:16:28;99852.94;;;28.60;19.02
62124;BME280;48110;47.532;19.078;2023-04-23T14:19:30;99851.47;;;27.98;19.96
62124;BME280;48110;47.532;19.078;2023-04-23T14:22:36;99846.16;;;29.58;18.48
62124;BME280;48110;47.532;19.078;2023-04-23T14:25:39;99848.03;;;28.76;19.90
62124;BME280;48110;47.532;19.078;2023-04-23T14:28:45;99839.91;;;26.34;21.53
62124;BME280;48110;47.532;19.078;2023-04-23T14:31:49;99827.38;;;26.00;22.16
62124;BME280;48110;47.532;19.078;2023-04-23T14:34:52;99830.50;;;26.22;22.51
62124;BME280;48110;47.532;19.078;2023-04-23T14:37:54;99831.69;;;26.06;22.10
62124;BME280;48110;47.532;19.078;2023-04-23T14:40:57;99822.94;;;24.80;23.41
62124;BME280;48110;47.532;19.078;2023-04-23T14:44:00;99832.72;;;24.71;23.76
62124;BME280;48110;47.532;19.078;2023-04-23T14:47:02;99831.00;;;23.64;24.12
62124;BME280;48110;47.532;19.078;2023-04-23T14:50:05;99821.72;;;23.45;24.71
62124;BME280;48110;47.532;19.078;2023-04-23T14:53:08;99817.53;;;23.89;24.94
62124;BME280;48110;47.532;19.078;2023-04-23T14:56:11;99816.34;;;23.50;24.61
62124;BME280;48110;47.532;19.078;2023-04-23T14:59:16;99816.97;;;23.72;26.16
62124;BME280;48110;47.532;19.078;2023-04-23T15:02:21;99810.19;;;23.85;26.33
62124;BME280;48110;47.532;19.078;2023-04-23T15:05:24;99811.19;;;23.53;24.63
62124;BME280;48110;47.532;19.078;2023-04-23T15:08:27;99819.97;;;23.86;24.78
62124;BME280;48110;47.532;19.078;2023-04-23T15:11:30;99811.75;;;23.55;25.27
62124;BME280;48110;47.532;19.078;2023-04-23T15:14:35;99809.19;;;23.33;25.59
62124;BME280;48110;47.532;19.078;2023-04-23T15:17:41;99814.00;;;23.11;25.96
62124;BME280;48110;47.532;19.078;2023-04-23T15:20:48;99806.03;;;22.89;25.53
62124;BME280;48110;47.532;19.078;2023-04-23T15:23:52;99806.56;;;22.49;26.00
62124;BME280;48110;47.532;19.078;2023-04-23T15:27:00;99806.09;;;22.63;26.03
62124;BME280;48110;47.532;19.078;2023-04-23T15:30:04;99805.78;;;22.54;26.15
62124;BME280;48110;47.532;19.078;2023-04-23T15:33:09;99806.91;;;22.63;26.85
62124;BME280;48110;47.532;19.078;2023-04-23T15:36:12;99800.91;;;22.51;26.54
62124;BME280;48110;47.532;19.078;2023-04-23T15:39:15;99794.22;;;22.27;27.11
62124;BME280;48110;47.532;19.078;2023-04-23T15:42:17;99788.94;;;22.10;27.34
62124;BME280;48110;47.532;19.078;2023-04-23T15:45:22;99794.38;;;21.88;27.19
62124;BME280;48110;47.532;19.078;2023-04-23T15:48:25;99784.31;;;21.52;28.08
62124;BME280;48110;47.532;19.078;2023-04-23T15:51:28;99788.34;;;21.28;27.88
62124;BME280;48110;47.532;19.078;2023-04-23T15:54:31;99788.72;;;21.14;28.46
62124;BME280;48110;47.532;19.078;2023-04-23T15:57:33;99781.47;;;21.15;28.43
62124;BME280;48110;47.532;19.078;2023-04-23T16:00:37;99778.25;;;21.01;28.91